»·PEaware :: SWA1809 KSFO-KLAS

SWA1809 :: KSFO-KLAS

FLIGHT INFORMATION

Flight Status: Arrived
Operator:
Southwest Airlines
More flights by this operator :: More flights under this callsign
Pilot: Cody B. (17747)
Aircraft: BOEING 737-800
(B738)
More flights by this aircraft type
Origin: KSFO San Francisco Intl
United States
Destination: KLAS McCarran Intl
United States
More flights between these airports :: More routes between these airports
Route: +SSTIK3 NTELL Q162 ESSAA BTY SUNST4
File this flight plan on PilotEdge
Remarks:
Altitude:
(Current/Filed)
33,000ft
Speed:
(Current/Filed)
453kts
Departed: 04-May-18 02:04 PM
Arrived: 04-May-18 03:18 PM
Distance/Time
Traveled:
359nm/1:14
Distance/Time
To Go:
Arrived

Flight Plot

Page will automatically refresh every two minutes.

Flight plan parsing failed; only flown route is shown


Map Options




Map Legend


Flown Route
Filed Route
Departure Airport
Arrival Airport
Navaid (VOR, NDB)
Fix

Horizontal Profiles

Position Reports

Time Latitude Longitude Heading Altitude Ground
Speed
04-May-18 13:31 37.612821 -122.383165 300 31ft 0kts
04-May-18 13:32 37.612821 -122.383165 300 31ft 0kts
04-May-18 13:33 37.612821 -122.383165 300 31ft 0kts
04-May-18 13:34 37.612821 -122.383165 300 31ft 0kts
04-May-18 13:35 37.612821 -122.383165 300 31ft 0kts
04-May-18 13:36 37.612821 -122.383165 300 31ft 0kts
04-May-18 13:37 37.612821 -122.383165 300 31ft 0kts
04-May-18 13:38 37.612821 -122.383165 300 31ft 0kts
04-May-18 13:40 37.612821 -122.383165 300 31ft 0kts
04-May-18 13:41 37.612821 -122.383165 300 31ft 0kts
04-May-18 13:42 37.612821 -122.383165 300 31ft 0kts
04-May-18 13:43 37.612821 -122.383165 300 31ft 0kts
04-May-18 13:44 37.612821 -122.383165 300 31ft 0kts
04-May-18 13:45 37.612821 -122.383165 300 31ft 0kts
04-May-18 13:46 37.612821 -122.383165 300 31ft 0kts
04-May-18 13:47 37.612821 -122.383165 300 31ft 0kts
04-May-18 13:48 37.612821 -122.383165 300 31ft 0kts
04-May-18 13:49 37.612821 -122.383165 300 31ft 0kts
04-May-18 13:50 37.612821 -122.383165 300 31ft 0kts
04-May-18 13:51 37.612821 -122.383165 300 31ft 0kts
04-May-18 13:52 37.612821 -122.383165 300 31ft 0kts
04-May-18 13:53 37.612821 -122.383165 300 31ft 0kts
04-May-18 13:54 37.612821 -122.383165 300 31ft 0kts
04-May-18 13:55 37.612821 -122.383165 300 31ft 0kts
04-May-18 13:56 37.612726 -122.382701 267 31ft 2kts
04-May-18 13:57 37.612987 -122.382057 216 31ft 2kts
04-May-18 13:58 37.613110 -122.381965 206 31ft 0kts
04-May-18 13:59 37.613110 -122.381965 206 31ft 0kts
04-May-18 14:00 37.612786 -122.382170 207 31ft 4kts
04-May-18 14:01 37.610150 -122.383991 217 31ft 14kts
04-May-18 14:02 37.609081 -122.383410 121 31ft 0kts
04-May-18 14:03 37.608928 -122.383073 117 30ft 5kts
04-May-18 14:04 37.615668 -122.377795 26 26ft 131kts
04-May-18 14:05 37.659178 -122.351398 359 2765ft 204kts
04-May-18 14:06 37.692244 -122.406068 257 5855ft 249kts
04-May-18 14:07 37.638429 -122.454535 188 9492ft 277kts
04-May-18 14:08 37.556143 -122.465948 186 11524ft 315kts
04-May-18 14:09 37.470866 -122.445752 139 14919ft 337kts
04-May-18 14:10 37.414211 -122.348401 126 17706ft 359kts
04-May-18 14:11 37.384536 -122.227105 102 20243ft 379kts
04-May-18 14:12 37.359398 -122.096147 104 22571ft 396kts
04-May-18 14:13 37.332109 -121.961712 104 24649ft 411kts
04-May-18 14:14 37.302810 -121.823775 104 26501ft 425kts
04-May-18 14:15 37.271783 -121.679139 104 28326ft 436kts
04-May-18 14:16 37.240268 -121.531566 103 29900ft 448kts
04-May-18 14:17 37.208571 -121.382664 103 31828ft 445kts
04-May-18 14:18 37.178589 -121.240832 104 33227ft 448kts
04-May-18 14:19 37.145784 -121.084694 104 33208ft 478kts
04-May-18 14:20 37.111959 -120.922942 103 33203ft 482kts
04-May-18 14:21 37.081656 -120.777074 103 33206ft 483kts
04-May-18 14:22 37.048204 -120.615204 103 33201ft 480kts
04-May-18 14:23 37.014959 -120.453479 103 33205ft 480kts
04-May-18 14:24 36.982521 -120.294480 103 33209ft 479kts
04-May-18 14:25 36.949793 -120.132984 103 33206ft 479kts
04-May-18 14:26 36.917236 -119.971651 103 33217ft 481kts
04-May-18 14:27 36.923901 -119.811399 66 33218ft 473kts
04-May-18 14:28 36.973548 -119.659203 65 33206ft 474kts
04-May-18 14:29 37.023093 -119.507484 65 33196ft 472kts
04-May-18 14:30 37.072315 -119.355176 65 33209ft 473kts
04-May-18 14:31 37.120979 -119.204346 65 33203ft 471kts
04-May-18 14:32 37.169926 -119.052591 65 33336ft 470kts
04-May-18 14:33 37.218918 -118.901018 65 33421ft 470kts
04-May-18 14:34 37.268190 -118.749226 65 33408ft 471kts
04-May-18 14:35 37.291248 -118.586982 82 33270ft 477kts
04-May-18 14:36 37.304811 -118.420871 81 33280ft 477kts
04-May-18 14:37 37.318952 -118.258808 82 33270ft 478kts
04-May-18 14:38 37.333648 -118.093541 81 33274ft 477kts
04-May-18 14:39 37.348586 -117.927972 81 33275ft 477kts
04-May-18 14:40 37.341612 -117.761978 96 33276ft 480kts
04-May-18 14:41 37.325395 -117.596306 95 33277ft 480kts
04-May-18 14:42 37.309917 -117.429807 95 33279ft 480kts
04-May-18 14:43 37.279043 -117.270673 123 33356ft 482kts
04-May-18 14:44 37.196583 -117.139364 128 33355ft 478kts
04-May-18 14:45 37.115304 -117.007835 128 33314ft 478kts
04-May-18 14:46 37.021451 -116.894121 151 33266ft 475kts
04-May-18 14:47 36.905187 -116.817154 153 33260ft 474kts
04-May-18 14:48 36.792554 -116.735885 138 33250ft 476kts
04-May-18 14:49 36.704353 -116.612704 131 33256ft 476kts
04-May-18 14:50 36.617419 -116.488486 131 33256ft 476kts
04-May-18 14:51 36.530374 -116.364891 131 33261ft 477kts
04-May-18 14:52 36.443626 -116.242353 131 33261ft 477kts
04-May-18 14:53 36.356510 -116.119435 131 31612ft 471kts
04-May-18 14:54 36.271371 -116.000065 131 28625ft 459kts
04-May-18 14:54 36.203629 -115.904187 125 27033ft 433kts
04-May-18 14:55 36.156583 -115.769653 110 25194ft 422kts
04-May-18 14:56 36.114704 -115.637489 110 23204ft 407kts
04-May-18 14:57 36.073854 -115.510246 110 21217ft 392kts
04-May-18 14:58 36.034325 -115.388048 110 19120ft 378kts
04-May-18 14:59 36.020529 -115.263943 93 16946ft 365kts
04-May-18 15:00 36.012901 -115.141169 93 14758ft 355kts
04-May-18 15:01 36.005684 -115.022891 93 12539ft 339kts
04-May-18 15:02 35.999605 -114.910540 92 10344ft 323kts
04-May-18 15:03 35.993692 -114.803497 92 8253ft 284kts
04-May-18 15:04 35.987974 -114.718814 92 7966ft 224kts
04-May-18 15:05 35.983142 -114.644547 86 7978ft 215kts
04-May-18 15:06 36.025109 -114.604177 8 7981ft 214kts
04-May-18 15:07 36.066451 -114.647509 280 8000ft 222kts
04-May-18 15:08 36.072491 -114.717964 277 7980ft 200kts
04-May-18 15:09 36.073513 -114.786437 272 7558ft 196kts
04-May-18 15:10 36.073562 -114.851328 273 6538ft 180kts
04-May-18 15:11 36.073636 -114.910794 273 5562ft 160kts
04-May-18 15:12 36.073707 -114.962087 272 4727ft 151kts
04-May-18 15:13 36.073743 -115.013639 271 3872ft 147kts
04-May-18 15:14 36.073732 -115.062127 270 3088ft 143kts
04-May-18 15:15 36.073458 -115.111829 274 2329ft 139kts
04-May-18 15:16 36.074275 -115.144902 294 2100ft 42kts
04-May-18 15:17 36.074816 -115.146238 306 2103ft 3kts
04-May-18 15:18 36.077313 -115.146615 343 2103ft 11kts
04-May-18 15:19 36.078527 -115.147837 79 2103ft 5kts
04-May-18 15:20 36.079554 -115.147670 14 2100ft 0kts
04-May-18 15:21 36.079923 -115.147122 56 2096ft 0kts
04-May-18 15:22 36.079923 -115.147122 56 2096ft 0kts

Navigation Log

Ident Type
Flight plan parsing failed, navigation log unavailable